Time;durP1;ratioP1;P1;durP2;ratioP2;P2;SDS_P1;SDS_P2;PMS_P1;PMS_P2;Temp;Humidity;BMP_temperature;BMP_pressure;BME280_temperature;BME280_humidity;BME280_pressure;Samples;Min_cycle;Max_cycle;Signal;HPM_P1;HPM_P2
2022/03/17 00:04:16;;;;;;;33.57;22.67;;;10.00;90.50;;;;;;20844962;28;20270;-65
2022/03/17 00:14:18;;;;;;;31.67;23.23;;;10.00;90.20;;;;;;20843102;28;20278;-65
2022/03/17 00:24:20;;;;;;;36.57;23.80;;;10.00;90.50;;;;;;20844466;28;20201;-65
2022/03/17 00:34:22;;;;;;;36.53;25.57;;;10.00;90.10;;;;;;20842202;28;20289;-63
2022/03/17 00:44:23;;;;;;;42.60;25.80;;;10.00;90.10;;;;;;20841333;28;20274;-67
2022/03/17 00:54:26;;;;;;;35.23;25.33;;;10.00;89.80;;;;;;20839200;28;20236;-63
2022/03/17 01:04:28;;;;;;;39.07;26.23;;;10.00;90.20;;;;;;20840048;28;20212;-65
2022/03/17 01:14:29;;;;;;;33.87;25.53;;;10.00;89.60;;;;;;20838895;28;20238;-66
2022/03/17 01:24:31;;;;;;;35.87;25.50;;;10.00;89.30;;;;;;20835139;28;20213;-64
2022/03/17 01:34:33;;;;;;;38.33;26.07;;;10.00;89.20;;;;;;20837655;28;20275;-65
2022/03/17 01:44:36;;;;;;;36.90;26.60;;;10.00;88.90;;;;;;20836951;28;20261;-63
2022/03/17 01:54:38;;;;;;;40.17;26.60;;;9.90;89.70;;;;;;20835898;28;20240;-64
2022/03/17 02:04:41;;;;;;;36.87;26.60;;;9.90;90.10;;;;;;20835671;28;20203;-64
2022/03/17 02:14:50;;;;;;;41.90;27.13;;;9.90;89.40;;;;;;20833865;28;20792;-62
2022/03/17 02:35:17;;;;;;;35.83;26.13;;;9.70;90.20;;;;;;20832795;28;20232;-64
2022/03/17 02:45:19;;;;;;;40.70;27.60;;;9.80;90.00;;;;;;20831381;28;20235;-63
2022/03/17 02:55:20;;;;;;;35.03;26.00;;;9.80;90.30;;;;;;20830846;28;20239;-63
2022/03/17 03:05:22;;;;;;;37.27;26.37;;;9.60;90.60;;;;;;20832469;28;20252;-63
2022/03/17 03:15:24;;;;;;;38.50;26.47;;;9.50;90.70;;;;;;20830079;28;20246;-64
2022/03/17 03:25:26;;;;;;;38.20;27.83;;;9.50;90.80;;;;;;20826203;28;20207;-68
2022/03/17 03:45:50;;;;;;;41.13;27.83;;;9.60;90.80;;;;;;20840234;28;20211;-63
2022/03/17 03:55:51;;;;;;;39.90;27.57;;;9.70;90.30;;;;;;20828526;28;20730;-64
2022/03/17 04:05:53;;;;;;;38.07;26.93;;;9.70;90.10;;;;;;20828458;28;20204;-64
2022/03/17 04:15:55;;;;;;;38.87;28.23;;;9.70;90.00;;;;;;20828012;28;20245;-70
2022/03/17 04:25:57;;;;;;;38.93;27.00;;;9.70;90.20;;;;;;20827054;28;20207;-65
2022/03/17 04:35:59;;;;;;;36.70;27.33;;;9.70;89.70;;;;;;20837987;28;20231;-65
2022/03/17 04:46:00;;;;;;;37.77;27.80;;;9.70;90.10;;;;;;20841791;28;20204;-64
2022/03/17 04:56:08;;;;;;;40.33;28.53;;;9.70;90.10;;;;;;20840110;28;20241;-70
2022/03/17 05:06:12;;;;;;;38.67;28.23;;;9.70;89.20;;;;;;20847028;28;20678;-63
2022/03/17 05:16:14;;;;;;;40.30;29.13;;;9.70;89.10;;;;;;20839033;28;20248;-64
2022/03/17 05:26:20;;;;;;;43.60;30.17;;;9.70;89.00;;;;;;20835276;28;20230;-65
2022/03/17 05:36:21;;;;;;;40.57;28.90;;;9.80;88.70;;;;;;20837643;28;20306;-66
2022/03/17 05:46:25;;;;;;;40.03;30.37;;;9.90;89.40;;;;;;20835717;28;20211;-64
2022/03/17 05:56:27;;;;;;;44.90;31.00;;;9.90;88.40;;;;;;20835912;28;20240;-65
2022/03/17 06:06:29;;;;;;;45.17;31.03;;;10.00;86.90;;;;;;20835235;28;20274;-63
2022/03/17 06:16:30;;;;;;;40.90;29.73;;;10.00;87.60;;;;;;20834012;28;20678;-66
2022/03/17 06:26:32;;;;;;;43.67;30.53;;;10.00;86.70;;;;;;20832852;28;20220;-65
2022/03/17 06:36:34;;;;;;;43.20;30.23;;;10.10;87.30;;;;;;20831487;28;20239;-63
2022/03/17 06:46:35;;;;;;;45.37;31.63;;;10.00;86.50;;;;;;20831123;28;20616;-64
2022/03/17 06:56:37;;;;;;;58.30;30.77;;;10.00;86.70;;;;;;20828821;28;20243;-63
2022/03/17 07:06:39;;;;;;;60.37;31.17;;;10.10;86.80;;;;;;20829584;28;20719;-63
2022/03/17 07:16:40;;;;;;;85.73;32.97;;;10.10;87.20;;;;;;20829423;28;20248;-62
2022/03/17 07:26:44;;;;;;;53.13;32.70;;;10.10;87.60;;;;;;20886759;28;20706;-63
2022/03/17 07:36:46;;;;;;;47.27;30.97;;;10.20;88.00;;;;;;20910012;28;20242;-64
2022/03/17 07:46:48;;;;;;;46.03;29.43;;;10.30;88.40;;;;;;20909111;28;20212;-64
2022/03/17 07:56:50;;;;;;;47.67;29.50;;;10.50;87.10;;;;;;20909551;28;20326;-66
2022/03/17 08:06:53;;;;;;;43.77;28.90;;;10.70;86.00;;;;;;20915622;28;20208;-68
2022/03/17 08:16:56;;;;;;;44.57;28.83;;;10.80;86.50;;;;;;20925561;28;20241;-62
2022/03/17 08:26:59;;;;;;;39.33;27.13;;;10.90;85.90;;;;;;20925140;28;20222;-61
2022/03/17 08:37:01;;;;;;;42.97;28.83;;;11.20;83.50;;;;;;20924183;28;20606;-63
2022/03/17 08:57:22;;;;;;;42.93;28.77;;;11.40;83.40;;;;;;20921937;28;20236;-64
2022/03/17 09:07:24;;;;;;;42.07;28.53;;;11.50;82.20;;;;;;20921711;28;20209;-62
2022/03/17 09:17:26;;;;;;;39.70;27.77;;;11.70;81.40;;;;;;20921481;28;20272;-63
2022/03/17 09:27:28;;;;;;;40.10;27.50;;;11.80;80.50;;;;;;20855453;28;20348;-63
2022/03/17 09:37:31;;;;;;;38.47;28.20;;;11.80;79.80;;;;;;20841920;28;20266;-63
2022/03/17 09:47:38;;;;;;;42.23;29.97;;;11.80;79.80;;;;;;20834586;28;20257;-62
2022/03/17 09:57:41;;;;;;;37.90;28.60;;;11.90;79.70;;;;;;20835195;28;20239;-63
2022/03/17 10:07:47;;;;;;;60.40;30.30;;;12.20;79.20;;;;;;20834042;28;20206;-67
2022/03/17 10:17:49;;;;;;;41.20;29.53;;;12.30;78.70;;;;;;20833253;28;20234;-64
2022/03/17 10:27:55;;;;;;;39.73;28.37;;;12.40;78.10;;;;;;20831557;28;20203;-64
2022/03/17 10:38:07;;;;;;;41.67;28.80;;;12.60;77.90;;;;;;20832966;28;20244;-63
2022/03/17 10:48:09;;;;;;;44.53;29.77;;;12.60;77.40;;;;;;20834294;28;20261;-63
2022/03/17 10:58:19;;;;;;;39.83;28.93;;;12.80;77.40;;;;;;20833176;28;20236;-63
2022/03/17 11:08:21;;;;;;;41.50;29.33;;;12.90;75.80;;;;;;20841569;28;20290;-63
2022/03/17 11:18:24;;;;;;;41.27;28.50;;;13.00;75.50;;;;;;20833700;28;20247;-64
2022/03/17 11:28:37;;;;;;;40.27;29.03;;;13.30;74.80;;;;;;20828334;28;20729;-63
2022/03/17 11:39:00;;;;;;;43.13;29.90;;;13.20;74.20;;;;;;20830961;28;20236;-62
2022/03/17 11:49:19;;;;;;;41.33;30.67;;;13.50;73.50;;;;;;20845807;28;20660;-62
2022/03/17 11:59:25;;;;;;;40.37;28.53;;;13.50;74.10;;;;;;20844624;28;20286;-63
2022/03/17 12:09:32;;;;;;;37.17;28.77;;;13.80;71.80;;;;;;20843263;28;20233;-63
2022/03/17 12:19:37;;;;;;;38.70;28.60;;;13.90;70.90;;;;;;20841712;28;20288;-62
2022/03/17 12:29:40;;;;;;;41.03;28.63;;;13.80;70.70;;;;;;20841523;28;20213;-63
2022/03/17 12:39:46;;;;;;;37.10;28.37;;;13.80;70.70;;;;;;20840683;28;20280;-62
2022/03/17 12:49:49;;;;;;;42.67;29.03;;;14.00;69.90;;;;;;20839635;28;20228;-62
2022/03/17 12:59:51;;;;;;;40.37;29.03;;;14.00;70.60;;;;;;20839255;28;20704;-63
2022/03/17 13:09:53;;;;;;;39.60;29.07;;;13.80;70.10;;;;;;20838328;28;20229;-62
2022/03/17 13:19:56;;;;;;;42.97;29.30;;;13.70;70.10;;;;;;20837709;28;20236;-62
2022/03/17 13:29:59;;;;;;;39.87;29.33;;;13.60;70.80;;;;;;20833681;28;20216;-62
2022/03/17 13:40:06;;;;;;;41.00;28.37;;;13.50;71.50;;;;;;20837537;28;20723;-62
2022/03/17 13:50:23;;;;;;;41.73;28.83;;;13.20;72.10;;;;;;20836667;28;20261;-66
2022/03/17 14:00:31;;;;;;;46.03;27.77;;;13.10;72.40;;;;;;20833929;28;20239;-65
2022/03/17 14:10:34;;;;;;;38.53;27.83;;;13.10;72.70;;;;;;20834126;28;20672;-70
2022/03/17 14:20:36;;;;;;;36.23;27.00;;;12.90;73.30;;;;;;20832013;28;20240;-65
2022/03/17 14:30:38;;;;;;;34.50;26.23;;;13.00;74.20;;;;;;20833965;28;20761;-63
2022/03/17 14:40:40;;;;;;;34.90;25.97;;;12.90;73.40;;;;;;20864102;28;20686;-65
2022/03/17 14:50:42;;;;;;;34.03;25.40;;;12.90;73.40;;;;;;20835317;28;20244;-64
2022/03/17 15:00:45;;;;;;;35.73;26.83;;;12.80;73.90;;;;;;20920750;28;20761;-68
2022/03/17 15:10:47;;;;;;;32.60;24.33;;;12.80;73.70;;;;;;20912406;28;20371;-64
2022/03/17 15:20:49;;;;;;;35.93;26.10;;;12.50;77.50;;;;;;20911519;28;20287;-70
2022/03/17 15:30:51;;;;;;;39.20;26.43;;;12.30;80.20;;;;;;20876565;28;20206;-73
2022/03/17 15:40:53;;;;;;;39.00;26.97;;;12.10;82.60;;;;;;20828294;28;20641;-64
2022/03/17 15:50:56;;;;;;;39.87;28.23;;;12.20;83.80;;;;;;20828003;28;20213;-64
2022/03/17 16:01:00;;;;;;;41.67;28.70;;;12.30;84.50;;;;;;20851822;28;20233;-66
2022/03/17 16:21:27;;;;;;;39.57;29.53;;;11.90;87.10;;;;;;20849537;28;20238;-66
2022/03/17 16:31:28;;;;;;;40.50;30.43;;;11.80;88.10;;;;;;20839126;28;20290;-64
2022/03/17 16:41:30;;;;;;;45.73;30.93;;;11.60;89.90;;;;;;20841334;28;20233;-65
2022/03/17 16:51:32;;;;;;;46.10;30.83;;;11.40;90.80;;;;;;20840081;28;20661;-69
2022/03/17 17:01:34;;;;;;;46.90;31.93;;;11.30;91.60;;;;;;20839657;28;20233;-65
2022/03/17 17:11:39;;;;;;;44.13;32.20;;;11.20;92.20;;;;;;20851298;28;20320;-70
2022/03/17 17:21:41;;;;;;;61.83;43.63;;;11.20;92.60;;;;;;20917463;28;20232;-66
2022/03/17 17:31:45;;;;;;;44.53;33.03;;;11.20;92.90;;;;;;20921118;28;20253;-67
2022/03/17 17:41:47;;;;;;;44.23;32.97;;;11.30;93.30;;;;;;20918883;28;20768;-63
2022/03/17 17:51:49;;;;;;;46.40;33.90;;;11.30;93.70;;;;;;20918713;28;20208;-68
2022/03/17 18:01:51;;;;;;;49.00;32.53;;;11.30;93.90;;;;;;20919117;28;20238;-66
2022/03/17 18:11:53;;;;;;;46.53;32.10;;;11.20;94.00;;;;;;20917061;28;20311;-66
2022/03/17 18:21:54;;;;;;;40.20;28.67;;;11.10;94.00;;;;;;20916158;28;20756;-66
2022/03/17 18:31:58;;;;;;;39.90;28.03;;;11.10;93.90;;;;;;20915893;28;20218;-69
2022/03/17 18:42:00;;;;;;;36.10;25.10;;;11.00;93.90;;;;;;20915798;28;20620;-65
2022/03/17 18:52:02;;;;;;;27.23;18.97;;;10.80;93.80;;;;;;20917114;28;20663;-63
2022/03/17 19:02:05;;;;;;;23.40;14.53;;;10.80;94.20;;;;;;20914260;28;20568;-68
2022/03/17 19:12:07;;;;;;;15.97;11.57;;;10.80;94.20;;;;;;20907037;28;20324;-65
2022/03/17 19:22:11;;;;;;;13.50;10.17;;;10.70;94.00;;;;;;20906113;28;20236;-68
2022/03/17 19:32:13;;;;;;;13.03;10.23;;;10.50;94.10;;;;;;20861832;28;20218;-67
2022/03/17 19:42:15;;;;;;;13.67;10.37;;;10.60;94.30;;;;;;20828007;28;20239;-64
2022/03/17 19:52:17;;;;;;;11.63;9.30;;;10.70;94.20;;;;;;20826901;28;20212;-66
2022/03/17 20:02:19;;;;;;;10.17;8.00;;;10.80;93.90;;;;;;20833680;28;20318;-69
2022/03/17 20:23:01;;;;;;;10.30;7.70;;;10.80;93.10;;;;;;20841046;28;20209;-64
2022/03/17 20:33:03;;;;;;;9.83;7.83;;;10.70;92.90;;;;;;20846732;28;20617;-66
2022/03/17 20:43:05;;;;;;;9.43;7.53;;;10.70;92.80;;;;;;20842740;28;20209;-67
2022/03/17 20:53:07;;;;;;;10.37;7.30;;;10.70;92.70;;;;;;20839221;28;20672;-65
2022/03/17 21:03:09;;;;;;;10.67;7.20;;;10.70;92.70;;;;;;20836923;28;20212;-63
2022/03/17 21:22:44;;;;;;;9.77;6.93;;;10.60;92.20;;;;;;20979271;28;20576;-63
2022/03/17 21:32:46;;;;;;;9.00;7.30;;;10.60;92.00;;;;;;20978310;28;20666;-65
2022/03/17 21:42:48;;;;;;;10.80;6.90;;;10.50;91.90;;;;;;20980171;28;20246;-64
2022/03/17 21:52:49;;;;;;;8.80;7.13;;;10.50;91.80;;;;;;20979302;28;20244;-64
2022/03/17 22:02:51;;;;;;;10.70;6.80;;;10.50;91.60;;;;;;20978540;28;20210;-68
2022/03/17 22:17:17;;;;;;;8.47;6.57;;;10.40;91.50;;;;;;20981425;28;20590;-68
2022/03/17 22:27:26;;;;;;;8.50;6.97;;;10.40;91.50;;;;;;20981060;28;20318;-71
2022/03/17 22:37:28;;;;;;;7.90;6.30;;;10.50;91.40;;;;;;20980019;28;20315;-63
2022/03/17 22:47:30;;;;;;;7.63;5.50;;;10.40;91.00;;;;;;20978323;28;20208;-65
2022/03/17 22:57:32;;;;;;;7.67;5.37;;;10.30;90.90;;;;;;20978010;28;20211;-66
2022/03/17 23:07:33;;;;;;;7.83;4.47;;;10.30;90.80;;;;;;20976309;28;20212;-69
2022/03/17 23:17:36;;;;;;;5.50;4.47;;;10.30;90.60;;;;;;20939103;28;20218;-63
2022/03/17 23:27:39;;;;;;;6.40;4.80;;;10.30;90.90;;;;;;20840259;28;20246;-64
2022/03/17 23:37:41;;;;;;;12.00;4.17;;;10.30;90.40;;;;;;20837919;28;20215;-62
2022/03/17 23:47:43;;;;;;;5.20;4.40;;;10.30;90.60;;;;;;20836742;28;20239;-66
2022/03/17 23:57:46;;;;;;;7.63;4.50;;;10.20;90.30;;;;;;20836682;28;20262;-68
